sensor_id;sensor_type;location;lat;lon;timestamp;P1;durP1;ratioP1;P2;durP2;ratioP2
51438;SDS011;38816;51.142;-0.974;2023-05-10T00:01:41;452.35;;;420.02;;
51438;SDS011;38816;51.142;-0.974;2023-05-10T00:04:06;459.75;;;427.45;;
51438;SDS011;38816;51.142;-0.974;2023-05-10T00:06:32;442.63;;;412.00;;
51438;SDS011;38816;51.142;-0.974;2023-05-10T00:08:58;456.45;;;424.15;;
51438;SDS011;38816;51.142;-0.974;2023-05-10T00:11:23;458.80;;;426.90;;
51438;SDS011;38816;51.142;-0.974;2023-05-10T00:13:49;464.83;;;432.73;;
51438;SDS011;38816;51.142;-0.974;2023-05-10T00:16:14;453.92;;;422.42;;
51438;SDS011;38816;51.142;-0.974;2023-05-10T00:18:40;454.52;;;422.25;;
51438;SDS011;38816;51.142;-0.974;2023-05-10T00:21:05;468.05;;;434.92;;
51438;SDS011;38816;51.142;-0.974;2023-05-10T00:23:31;453.80;;;421.90;;
51438;SDS011;38816;51.142;-0.974;2023-05-10T00:25:56;458.02;;;425.77;;
51438;SDS011;38816;51.142;-0.974;2023-05-10T00:28:22;476.15;;;442.88;;
51438;SDS011;38816;51.142;-0.974;2023-05-10T00:30:47;458.90;;;426.42;;
51438;SDS011;38816;51.142;-0.974;2023-05-10T00:33:12;475.92;;;443.15;;
51438;SDS011;38816;51.142;-0.974;2023-05-10T00:35:38;474.00;;;441.35;;
51438;SDS011;38816;51.142;-0.974;2023-05-10T00:38:04;461.45;;;428.60;;
51438;SDS011;38816;51.142;-0.974;2023-05-10T00:40:29;469.00;;;435.50;;
51438;SDS011;38816;51.142;-0.974;2023-05-10T00:42:55;472.02;;;438.73;;
51438;SDS011;38816;51.142;-0.974;2023-05-10T00:45:21;457.02;;;424.48;;
51438;SDS011;38816;51.142;-0.974;2023-05-10T00:47:47;464.25;;;431.67;;
51438;SDS011;38816;51.142;-0.974;2023-05-10T00:50:12;462.52;;;429.38;;
51438;SDS011;38816;51.142;-0.974;2023-05-10T00:52:39;465.83;;;432.50;;
51438;SDS011;38816;51.142;-0.974;2023-05-10T00:55:05;464.65;;;431.52;;
51438;SDS011;38816;51.142;-0.974;2023-05-10T00:57:31;469.13;;;434.80;;
51438;SDS011;38816;51.142;-0.974;2023-05-10T00:59:57;462.40;;;429.63;;
51438;SDS011;38816;51.142;-0.974;2023-05-10T01:02:23;471.27;;;437.00;;
51438;SDS011;38816;51.142;-0.974;2023-05-10T01:04:49;457.33;;;424.45;;
51438;SDS011;38816;51.142;-0.974;2023-05-10T01:07:15;452.40;;;419.95;;
51438;SDS011;38816;51.142;-0.974;2023-05-10T01:09:40;463.42;;;429.88;;
51438;SDS011;38816;51.142;-0.974;2023-05-10T01:12:07;459.73;;;426.73;;
51438;SDS011;38816;51.142;-0.974;2023-05-10T01:14:33;460.35;;;427.55;;
51438;SDS011;38816;51.142;-0.974;2023-05-10T01:16:59;452.08;;;419.45;;
51438;SDS011;38816;51.142;-0.974;2023-05-10T01:19:26;458.60;;;425.45;;
51438;SDS011;38816;51.142;-0.974;2023-05-10T01:22:05;464.90;;;430.85;;
51438;SDS011;38816;51.142;-0.974;2023-05-10T01:24:59;447.50;;;415.52;;
51438;SDS011;38816;51.142;-0.974;2023-05-10T01:36:09;446.25;;;413.80;;
51438;SDS011;38816;51.142;-0.974;2023-05-10T01:38:47;447.48;;;415.83;;
51438;SDS011;38816;51.142;-0.974;2023-05-10T01:41:23;444.02;;;412.52;;
51438;SDS011;38816;51.142;-0.974;2023-05-10T01:44:07;444.45;;;412.23;;
51438;SDS011;38816;51.142;-0.974;2023-05-10T01:46:41;457.00;;;424.38;;
51438;SDS011;38816;51.142;-0.974;2023-05-10T01:49:13;439.98;;;408.95;;
51438;SDS011;38816;51.142;-0.974;2023-05-10T01:51:50;441.13;;;410.08;;
51438;SDS011;38816;51.142;-0.974;2023-05-10T01:54:20;443.88;;;411.73;;
51438;SDS011;38816;51.142;-0.974;2023-05-10T01:56:48;455.02;;;422.63;;
51438;SDS011;38816;51.142;-0.974;2023-05-10T01:59:20;454.47;;;422.30;;
51438;SDS011;38816;51.142;-0.974;2023-05-10T02:01:47;450.15;;;417.13;;
51438;SDS011;38816;51.142;-0.974;2023-05-10T02:04:15;456.83;;;424.20;;
51438;SDS011;38816;51.142;-0.974;2023-05-10T02:06:42;438.23;;;406.63;;
51438;SDS011;38816;51.142;-0.974;2023-05-10T02:09:10;444.17;;;412.08;;
51438;SDS011;38816;51.142;-0.974;2023-05-10T02:11:41;438.75;;;407.42;;
51438;SDS011;38816;51.142;-0.974;2023-05-10T02:14:09;432.05;;;401.02;;
51438;SDS011;38816;51.142;-0.974;2023-05-10T02:16:36;453.85;;;421.55;;
51438;SDS011;38816;51.142;-0.974;2023-05-10T02:19:03;448.23;;;416.55;;
51438;SDS011;38816;51.142;-0.974;2023-05-10T02:21:30;434.27;;;402.52;;
51438;SDS011;38816;51.142;-0.974;2023-05-10T02:23:57;439.80;;;408.83;;
51438;SDS011;38816;51.142;-0.974;2023-05-10T02:26:26;445.75;;;413.42;;
51438;SDS011;38816;51.142;-0.974;2023-05-10T02:28:53;446.50;;;414.83;;
51438;SDS011;38816;51.142;-0.974;2023-05-10T02:31:19;435.50;;;404.13;;
51438;SDS011;38816;51.142;-0.974;2023-05-10T02:33:46;426.52;;;395.90;;
51438;SDS011;38816;51.142;-0.974;2023-05-10T02:36:13;452.33;;;418.52;;
51438;SDS011;38816;51.142;-0.974;2023-05-10T02:38:39;441.35;;;409.95;;
51438;SDS011;38816;51.142;-0.974;2023-05-10T02:41:06;434.80;;;403.08;;
51438;SDS011;38816;51.142;-0.974;2023-05-10T02:43:33;438.58;;;407.05;;
51438;SDS011;38816;51.142;-0.974;2023-05-10T02:46:00;435.65;;;404.58;;
51438;SDS011;38816;51.142;-0.974;2023-05-10T02:48:26;435.58;;;404.08;;
51438;SDS011;38816;51.142;-0.974;2023-05-10T02:50:52;438.98;;;407.17;;
51438;SDS011;38816;51.142;-0.974;2023-05-10T02:53:22;435.27;;;403.70;;
51438;SDS011;38816;51.142;-0.974;2023-05-10T02:55:50;449.30;;;416.90;;
51438;SDS011;38816;51.142;-0.974;2023-05-10T02:58:17;442.55;;;410.30;;
51438;SDS011;38816;51.142;-0.974;2023-05-10T03:00:44;440.60;;;409.20;;
51438;SDS011;38816;51.142;-0.974;2023-05-10T03:03:11;440.42;;;409.52;;
51438;SDS011;38816;51.142;-0.974;2023-05-10T03:05:36;445.40;;;413.08;;
51438;SDS011;38816;51.142;-0.974;2023-05-10T03:08:01;441.45;;;409.58;;
51438;SDS011;38816;51.142;-0.974;2023-05-10T03:10:29;445.65;;;413.27;;
51438;SDS011;38816;51.142;-0.974;2023-05-10T03:21:07;427.90;;;397.67;;
51438;SDS011;38816;51.142;-0.974;2023-05-10T03:23:41;442.52;;;410.75;;
51438;SDS011;38816;51.142;-0.974;2023-05-10T03:26:09;434.33;;;403.67;;
51438;SDS011;38816;51.142;-0.974;2023-05-10T03:28:42;443.45;;;411.88;;
51438;SDS011;38816;51.142;-0.974;2023-05-10T03:31:08;430.05;;;399.58;;
51438;SDS011;38816;51.142;-0.974;2023-05-10T03:33:34;448.15;;;415.90;;
51438;SDS011;38816;51.142;-0.974;2023-05-10T03:36:00;443.35;;;411.08;;
51438;SDS011;38816;51.142;-0.974;2023-05-10T03:38:25;452.33;;;419.42;;
51438;SDS011;38816;51.142;-0.974;2023-05-10T03:40:50;439.17;;;407.92;;
51438;SDS011;38816;51.142;-0.974;2023-05-10T03:43:16;456.73;;;423.90;;
51438;SDS011;38816;51.142;-0.974;2023-05-10T03:45:42;429.23;;;398.77;;
51438;SDS011;38816;51.142;-0.974;2023-05-10T03:48:07;449.92;;;416.48;;
51438;SDS011;38816;51.142;-0.974;2023-05-10T03:50:32;453.83;;;421.05;;
51438;SDS011;38816;51.142;-0.974;2023-05-10T03:52:58;451.65;;;419.23;;
51438;SDS011;38816;51.142;-0.974;2023-05-10T03:55:23;440.75;;;408.45;;
51438;SDS011;38816;51.142;-0.974;2023-05-10T03:57:48;452.73;;;420.10;;
51438;SDS011;38816;51.142;-0.974;2023-05-10T04:00:18;450.67;;;417.23;;
51438;SDS011;38816;51.142;-0.974;2023-05-10T04:02:44;452.70;;;419.95;;
51438;SDS011;38816;51.142;-0.974;2023-05-10T04:05:09;455.20;;;422.05;;
51438;SDS011;38816;51.142;-0.974;2023-05-10T04:07:35;456.60;;;423.60;;
51438;SDS011;38816;51.142;-0.974;2023-05-10T04:10:01;456.67;;;423.02;;
51438;SDS011;38816;51.142;-0.974;2023-05-10T04:12:26;464.17;;;430.35;;
51438;SDS011;38816;51.142;-0.974;2023-05-10T04:14:51;464.92;;;431.25;;
51438;SDS011;38816;51.142;-0.974;2023-05-10T04:17:17;464.02;;;430.88;;
51438;SDS011;38816;51.142;-0.974;2023-05-10T04:19:42;463.83;;;430.67;;
51438;SDS011;38816;51.142;-0.974;2023-05-10T04:22:07;467.40;;;433.40;;
51438;SDS011;38816;51.142;-0.974;2023-05-10T04:24:33;448.42;;;415.88;;
51438;SDS011;38816;51.142;-0.974;2023-05-10T04:26:58;459.67;;;426.67;;
51438;SDS011;38816;51.142;-0.974;2023-05-10T04:29:24;451.33;;;418.67;;
51438;SDS011;38816;51.142;-0.974;2023-05-10T04:31:49;465.23;;;431.98;;
51438;SDS011;38816;51.142;-0.974;2023-05-10T04:34:15;457.30;;;424.67;;
51438;SDS011;38816;51.142;-0.974;2023-05-10T04:36:41;472.13;;;437.25;;
51438;SDS011;38816;51.142;-0.974;2023-05-10T04:39:06;466.48;;;432.55;;
51438;SDS011;38816;51.142;-0.974;2023-05-10T04:41:32;453.13;;;419.70;;
51438;SDS011;38816;51.142;-0.974;2023-05-10T04:43:57;472.58;;;438.05;;
51438;SDS011;38816;51.142;-0.974;2023-05-10T04:46:22;469.23;;;433.92;;
51438;SDS011;38816;51.142;-0.974;2023-05-10T04:48:48;462.33;;;428.00;;
51438;SDS011;38816;51.142;-0.974;2023-05-10T04:51:13;470.55;;;435.70;;
51438;SDS011;38816;51.142;-0.974;2023-05-10T04:53:38;466.42;;;432.67;;
51438;SDS011;38816;51.142;-0.974;2023-05-10T04:56:04;471.70;;;437.35;;
51438;SDS011;38816;51.142;-0.974;2023-05-10T04:58:29;457.73;;;423.60;;
51438;SDS011;38816;51.142;-0.974;2023-05-10T05:00:55;470.80;;;435.83;;
51438;SDS011;38816;51.142;-0.974;2023-05-10T05:03:20;466.08;;;431.77;;
51438;SDS011;38816;51.142;-0.974;2023-05-10T05:05:47;465.52;;;430.77;;
51438;SDS011;38816;51.142;-0.974;2023-05-10T05:08:12;467.45;;;433.27;;
51438;SDS011;38816;51.142;-0.974;2023-05-10T05:10:38;462.98;;;429.05;;
51438;SDS011;38816;51.142;-0.974;2023-05-10T05:13:03;465.23;;;431.42;;
51438;SDS011;38816;51.142;-0.974;2023-05-10T05:15:28;471.63;;;437.27;;
51438;SDS011;38816;51.142;-0.974;2023-05-10T05:17:55;479.60;;;445.00;;
51438;SDS011;38816;51.142;-0.974;2023-05-10T05:20:20;468.35;;;434.27;;
51438;SDS011;38816;51.142;-0.974;2023-05-10T05:22:46;473.35;;;439.10;;
51438;SDS011;38816;51.142;-0.974;2023-05-10T05:25:11;473.05;;;438.05;;
51438;SDS011;38816;51.142;-0.974;2023-05-10T05:27:37;471.80;;;437.13;;
51438;SDS011;38816;51.142;-0.974;2023-05-10T05:30:03;461.55;;;427.67;;
51438;SDS011;38816;51.142;-0.974;2023-05-10T05:32:29;473.30;;;438.70;;
51438;SDS011;38816;51.142;-0.974;2023-05-10T05:34:54;465.83;;;431.38;;
51438;SDS011;38816;51.142;-0.974;2023-05-10T05:37:20;477.13;;;442.27;;
51438;SDS011;38816;51.142;-0.974;2023-05-10T05:39:49;474.13;;;439.67;;
51438;SDS011;38816;51.142;-0.974;2023-05-10T05:42:15;477.27;;;442.67;;
51438;SDS011;38816;51.142;-0.974;2023-05-10T05:44:41;468.92;;;434.95;;
51438;SDS011;38816;51.142;-0.974;2023-05-10T05:47:07;469.30;;;434.63;;
51438;SDS011;38816;51.142;-0.974;2023-05-10T05:49:32;468.02;;;433.65;;
51438;SDS011;38816;51.142;-0.974;2023-05-10T05:52:03;455.70;;;422.77;;
51438;SDS011;38816;51.142;-0.974;2023-05-10T05:54:29;457.02;;;424.45;;
51438;SDS011;38816;51.142;-0.974;2023-05-10T05:56:56;462.13;;;428.73;;
51438;SDS011;38816;51.142;-0.974;2023-05-10T05:59:22;455.25;;;422.38;;
51438;SDS011;38816;51.142;-0.974;2023-05-10T06:01:47;456.30;;;422.90;;
51438;SDS011;38816;51.142;-0.974;2023-05-10T06:04:12;471.63;;;437.38;;
51438;SDS011;38816;51.142;-0.974;2023-05-10T06:06:38;461.63;;;428.13;;
51438;SDS011;38816;51.142;-0.974;2023-05-10T06:09:03;457.65;;;424.38;;
51438;SDS011;38816;51.142;-0.974;2023-05-10T06:11:29;455.67;;;422.25;;
51438;SDS011;38816;51.142;-0.974;2023-05-10T06:13:56;454.20;;;421.30;;
51438;SDS011;38816;51.142;-0.974;2023-05-10T06:16:22;460.67;;;427.35;;
51438;SDS011;38816;51.142;-0.974;2023-05-10T06:18:48;443.85;;;411.75;;
51438;SDS011;38816;51.142;-0.974;2023-05-10T06:21:13;446.63;;;414.88;;
51438;SDS011;38816;51.142;-0.974;2023-05-10T06:23:39;441.42;;;409.70;;
51438;SDS011;38816;51.142;-0.974;2023-05-10T06:26:05;442.13;;;410.10;;
51438;SDS011;38816;51.142;-0.974;2023-05-10T06:28:30;426.40;;;396.27;;
51438;SDS011;38816;51.142;-0.974;2023-05-10T06:30:57;430.13;;;399.58;;
51438;SDS011;38816;51.142;-0.974;2023-05-10T06:33:22;430.75;;;400.48;;
51438;SDS011;38816;51.142;-0.974;2023-05-10T06:35:48;430.70;;;400.42;;
51438;SDS011;38816;51.142;-0.974;2023-05-10T06:38:13;436.98;;;405.70;;
51438;SDS011;38816;51.142;-0.974;2023-05-10T06:40:41;416.48;;;387.33;;
51438;SDS011;38816;51.142;-0.974;2023-05-10T06:43:07;424.33;;;393.92;;
51438;SDS011;38816;51.142;-0.974;2023-05-10T06:45:33;416.30;;;386.80;;
51438;SDS011;38816;51.142;-0.974;2023-05-10T06:47:58;419.55;;;389.70;;
51438;SDS011;38816;51.142;-0.974;2023-05-10T06:50:23;432.65;;;402.27;;
51438;SDS011;38816;51.142;-0.974;2023-05-10T06:52:49;415.15;;;386.23;;
51438;SDS011;38816;51.142;-0.974;2023-05-10T06:55:14;422.00;;;391.60;;
51438;SDS011;38816;51.142;-0.974;2023-05-10T06:57:40;412.55;;;383.40;;
51438;SDS011;38816;51.142;-0.974;2023-05-10T07:00:05;411.98;;;382.88;;
51438;SDS011;38816;51.142;-0.974;2023-05-10T07:02:31;409.75;;;380.75;;
51438;SDS011;38816;51.142;-0.974;2023-05-10T07:04:56;397.02;;;369.02;;
51438;SDS011;38816;51.142;-0.974;2023-05-10T07:07:22;401.88;;;374.27;;
51438;SDS011;38816;51.142;-0.974;2023-05-10T07:09:47;406.42;;;378.02;;
51438;SDS011;38816;51.142;-0.974;2023-05-10T07:12:14;408.33;;;379.83;;
51438;SDS011;38816;51.142;-0.974;2023-05-10T07:14:40;385.85;;;359.15;;
51438;SDS011;38816;51.142;-0.974;2023-05-10T07:17:05;375.15;;;349.35;;
51438;SDS011;38816;51.142;-0.974;2023-05-10T07:19:31;386.35;;;359.27;;
51438;SDS011;38816;51.142;-0.974;2023-05-10T07:21:57;376.02;;;349.30;;
51438;SDS011;38816;51.142;-0.974;2023-05-10T07:24:23;376.88;;;350.77;;
51438;SDS011;38816;51.142;-0.974;2023-05-10T07:26:49;363.10;;;338.05;;
51438;SDS011;38816;51.142;-0.974;2023-05-10T07:29:14;361.92;;;336.67;;
51438;SDS011;38816;51.142;-0.974;2023-05-10T07:31:40;349.60;;;325.45;;
51438;SDS011;38816;51.142;-0.974;2023-05-10T07:34:07;358.40;;;333.20;;
51438;SDS011;38816;51.142;-0.974;2023-05-10T07:36:33;347.17;;;323.38;;
51438;SDS011;38816;51.142;-0.974;2023-05-10T07:38:58;350.00;;;325.67;;
51438;SDS011;38816;51.142;-0.974;2023-05-10T07:41:24;338.45;;;314.70;;
51438;SDS011;38816;51.142;-0.974;2023-05-10T07:43:49;341.80;;;318.30;;
51438;SDS011;38816;51.142;-0.974;2023-05-10T07:46:15;341.48;;;318.08;;
51438;SDS011;38816;51.142;-0.974;2023-05-10T07:48:40;361.35;;;335.90;;
51438;SDS011;38816;51.142;-0.974;2023-05-10T07:51:06;353.73;;;329.10;;
51438;SDS011;38816;51.142;-0.974;2023-05-10T07:53:34;367.45;;;341.00;;
51438;SDS011;38816;51.142;-0.974;2023-05-10T07:56:19;351.48;;;327.35;;
51438;SDS011;38816;51.142;-0.974;2023-05-10T07:58:46;346.95;;;323.15;;
51438;SDS011;38816;51.142;-0.974;2023-05-10T08:01:12;307.90;;;286.52;;
51438;SDS011;38816;51.142;-0.974;2023-05-10T08:03:37;312.42;;;291.58;;
51438;SDS011;38816;51.142;-0.974;2023-05-10T08:06:02;289.65;;;269.58;;
51438;SDS011;38816;51.142;-0.974;2023-05-10T08:08:28;304.88;;;284.08;;
51438;SDS011;38816;51.142;-0.974;2023-05-10T08:10:53;309.50;;;288.45;;
51438;SDS011;38816;51.142;-0.974;2023-05-10T08:13:19;292.52;;;272.52;;
51438;SDS011;38816;51.142;-0.974;2023-05-10T08:15:44;289.80;;;269.80;;
51438;SDS011;38816;51.142;-0.974;2023-05-10T08:18:10;298.08;;;276.50;;
51438;SDS011;38816;51.142;-0.974;2023-05-10T08:20:35;290.95;;;271.05;;
51438;SDS011;38816;51.142;-0.974;2023-05-10T08:23:00;292.95;;;271.95;;
51438;SDS011;38816;51.142;-0.974;2023-05-10T08:25:26;298.05;;;277.35;;
51438;SDS011;38816;51.142;-0.974;2023-05-10T08:27:51;283.08;;;263.17;;
51438;SDS011;38816;51.142;-0.974;2023-05-10T08:30:16;288.00;;;268.75;;
51438;SDS011;38816;51.142;-0.974;2023-05-10T08:32:42;280.17;;;260.85;;
51438;SDS011;38816;51.142;-0.974;2023-05-10T08:35:07;276.20;;;257.23;;
51438;SDS011;38816;51.142;-0.974;2023-05-10T08:37:33;250.25;;;232.82;;
51438;SDS011;38816;51.142;-0.974;2023-05-10T08:39:58;233.63;;;217.90;;
51438;SDS011;38816;51.142;-0.974;2023-05-10T08:42:23;201.02;;;186.57;;
51438;SDS011;38816;51.142;-0.974;2023-05-10T08:44:53;216.48;;;201.07;;
51438;SDS011;38816;51.142;-0.974;2023-05-10T08:47:19;208.43;;;193.38;;
51438;SDS011;38816;51.142;-0.974;2023-05-10T08:49:45;179.32;;;166.40;;
51438;SDS011;38816;51.142;-0.974;2023-05-10T08:52:15;198.55;;;184.73;;
51438;SDS011;38816;51.142;-0.974;2023-05-10T08:54:42;173.05;;;160.48;;
51438;SDS011;38816;51.142;-0.974;2023-05-10T08:57:08;186.95;;;173.55;;
51438;SDS011;38816;51.142;-0.974;2023-05-10T08:59:34;199.88;;;185.70;;
51438;SDS011;38816;51.142;-0.974;2023-05-10T09:02:00;150.00;;;139.05;;
51438;SDS011;38816;51.142;-0.974;2023-05-10T09:04:26;121.60;;;112.70;;
51438;SDS011;38816;51.142;-0.974;2023-05-10T09:06:52;130.68;;;121.20;;
51438;SDS011;38816;51.142;-0.974;2023-05-10T09:09:18;117.80;;;108.80;;
51438;SDS011;38816;51.142;-0.974;2023-05-10T09:11:45;143.70;;;133.40;;
51438;SDS011;38816;51.142;-0.974;2023-05-10T09:14:11;146.30;;;135.57;;
51438;SDS011;38816;51.142;-0.974;2023-05-10T09:16:38;140.63;;;130.30;;
51438;SDS011;38816;51.142;-0.974;2023-05-10T09:19:03;130.52;;;120.85;;
51438;SDS011;38816;51.142;-0.974;2023-05-10T09:21:29;102.68;;;95.22;;
51438;SDS011;38816;51.142;-0.974;2023-05-10T09:23:56;92.47;;;85.30;;
51438;SDS011;38816;51.142;-0.974;2023-05-10T09:26:21;117.72;;;109.20;;
51438;SDS011;38816;51.142;-0.974;2023-05-10T09:31:17;124.55;;;115.45;;
51438;SDS011;38816;51.142;-0.974;2023-05-10T09:33:46;97.50;;;90.05;;
51438;SDS011;38816;51.142;-0.974;2023-05-10T09:36:15;93.90;;;87.03;;
51438;SDS011;38816;51.142;-0.974;2023-05-10T09:38:48;92.93;;;85.90;;
51438;SDS011;38816;51.142;-0.974;2023-05-10T09:41:18;89.22;;;82.38;;
51438;SDS011;38816;51.142;-0.974;2023-05-10T09:43:45;57.15;;;52.50;;
51438;SDS011;38816;51.142;-0.974;2023-05-10T09:46:11;53.90;;;49.60;;
51438;SDS011;38816;51.142;-0.974;2023-05-10T09:48:46;53.83;;;49.65;;
51438;SDS011;38816;51.142;-0.974;2023-05-10T09:51:19;46.33;;;42.75;;
51438;SDS011;38816;51.142;-0.974;2023-05-10T09:53:45;49.78;;;45.78;;
51438;SDS011;38816;51.142;-0.974;2023-05-10T09:56:11;82.05;;;75.88;;
51438;SDS011;38816;51.142;-0.974;2023-05-10T09:58:36;73.25;;;67.70;;
51438;SDS011;38816;51.142;-0.974;2023-05-10T10:01:05;35.83;;;33.00;;
51438;SDS011;38816;51.142;-0.974;2023-05-10T10:03:40;41.63;;;38.15;;
51438;SDS011;38816;51.142;-0.974;2023-05-10T10:06:07;21.95;;;15.55;;
51438;SDS011;38816;51.142;-0.974;2023-05-10T10:08:33;21.95;;;18.02;;
51438;SDS011;38816;51.142;-0.974;2023-05-10T10:10:59;19.63;;;17.70;;
51438;SDS011;38816;51.142;-0.974;2023-05-10T10:13:25;26.25;;;23.63;;
51438;SDS011;38816;51.142;-0.974;2023-05-10T10:15:51;23.13;;;20.40;;
51438;SDS011;38816;51.142;-0.974;2023-05-10T10:18:17;18.10;;;16.40;;
51438;SDS011;38816;51.142;-0.974;2023-05-10T10:20:48;18.15;;;16.23;;
51438;SDS011;38816;51.142;-0.974;2023-05-10T10:23:14;15.88;;;14.35;;
51438;SDS011;38816;51.142;-0.974;2023-05-10T10:25:39;19.65;;;16.50;;
51438;SDS011;38816;51.142;-0.974;2023-05-10T10:30:46;20.80;;;18.65;;
51438;SDS011;38816;51.142;-0.974;2023-05-10T10:36:05;19.67;;;17.70;;
51438;SDS011;38816;51.142;-0.974;2023-05-10T10:38:37;21.58;;;17.25;;
51438;SDS011;38816;51.142;-0.974;2023-05-10T10:41:34;16.55;;;13.65;;
51438;SDS011;38816;51.142;-0.974;2023-05-10T10:49:34;14.38;;;12.93;;
51438;SDS011;38816;51.142;-0.974;2023-05-10T11:00:22;30.90;;;28.40;;
51438;SDS011;38816;51.142;-0.974;2023-05-10T11:03:04;29.55;;;26.55;;
51438;SDS011;38816;51.142;-0.974;2023-05-10T11:08:00;33.30;;;30.50;;
51438;SDS011;38816;51.142;-0.974;2023-05-10T11:10:32;14.47;;;11.97;;
51438;SDS011;38816;51.142;-0.974;2023-05-10T11:13:02;15.98;;;14.68;;
51438;SDS011;38816;51.142;-0.974;2023-05-10T11:15:30;19.52;;;14.15;;
51438;SDS011;38816;51.142;-0.974;2023-05-10T11:17:59;16.55;;;13.07;;
51438;SDS011;38816;51.142;-0.974;2023-05-10T11:20:40;18.25;;;12.45;;
51438;SDS011;38816;51.142;-0.974;2023-05-10T11:23:12;16.98;;;15.23;;
51438;SDS011;38816;51.142;-0.974;2023-05-10T11:25:41;15.27;;;13.82;;
51438;SDS011;38816;51.142;-0.974;2023-05-10T11:28:08;28.33;;;25.95;;
51438;SDS011;38816;51.142;-0.974;2023-05-10T11:30:33;63.28;;;58.38;;
51438;SDS011;38816;51.142;-0.974;2023-05-10T11:32:58;77.97;;;72.63;;
51438;SDS011;38816;51.142;-0.974;2023-05-10T11:35:24;108.72;;;100.80;;
51438;SDS011;38816;51.142;-0.974;2023-05-10T11:37:52;94.65;;;88.30;;
51438;SDS011;38816;51.142;-0.974;2023-05-10T11:40:18;136.20;;;127.15;;
51438;SDS011;38816;51.142;-0.974;2023-05-10T11:42:44;204.15;;;190.43;;
51438;SDS011;38816;51.142;-0.974;2023-05-10T11:45:10;237.48;;;221.82;;
51438;SDS011;38816;51.142;-0.974;2023-05-10T11:47:36;263.58;;;246.27;;
51438;SDS011;38816;51.142;-0.974;2023-05-10T11:50:02;268.13;;;250.65;;
51438;SDS011;38816;51.142;-0.974;2023-05-10T11:52:27;265.92;;;248.32;;
51438;SDS011;38816;51.142;-0.974;2023-05-10T11:54:54;231.18;;;216.13;;
51438;SDS011;38816;51.142;-0.974;2023-05-10T11:57:20;176.57;;;164.18;;
51438;SDS011;38816;51.142;-0.974;2023-05-10T11:59:53;147.52;;;137.25;;
51438;SDS011;38816;51.142;-0.974;2023-05-10T12:02:22;160.80;;;150.32;;
51438;SDS011;38816;51.142;-0.974;2023-05-10T12:04:47;143.45;;;133.48;;
51438;SDS011;38816;51.142;-0.974;2023-05-10T12:07:13;160.98;;;150.18;;
51438;SDS011;38816;51.142;-0.974;2023-05-10T12:09:44;178.50;;;166.68;;
51438;SDS011;38816;51.142;-0.974;2023-05-10T12:12:27;202.10;;;189.05;;
51438;SDS011;38816;51.142;-0.974;2023-05-10T12:14:52;230.70;;;215.75;;
51438;SDS011;38816;51.142;-0.974;2023-05-10T12:17:17;269.05;;;251.82;;
51438;SDS011;38816;51.142;-0.974;2023-05-10T12:19:43;282.52;;;264.35;;
51438;SDS011;38816;51.142;-0.974;2023-05-10T12:22:08;297.55;;;278.38;;
51438;SDS011;38816;51.142;-0.974;2023-05-10T12:24:37;315.58;;;295.13;;
51438;SDS011;38816;51.142;-0.974;2023-05-10T12:27:05;338.30;;;316.20;;
51438;SDS011;38816;51.142;-0.974;2023-05-10T12:29:33;357.05;;;333.60;;
51438;SDS011;38816;51.142;-0.974;2023-05-10T12:31:59;392.60;;;366.48;;
51438;SDS011;38816;51.142;-0.974;2023-05-10T12:34:34;415.27;;;387.27;;
51438;SDS011;38816;51.142;-0.974;2023-05-10T12:37:03;433.98;;;404.80;;
51438;SDS011;38816;51.142;-0.974;2023-05-10T12:39:39;444.45;;;414.00;;
51438;SDS011;38816;51.142;-0.974;2023-05-10T12:42:09;449.35;;;418.33;;
51438;SDS011;38816;51.142;-0.974;2023-05-10T12:44:35;464.17;;;432.63;;
51438;SDS011;38816;51.142;-0.974;2023-05-10T12:47:00;471.45;;;439.30;;
51438;SDS011;38816;51.142;-0.974;2023-05-10T12:49:27;481.98;;;449.08;;
51438;SDS011;38816;51.142;-0.974;2023-05-10T12:51:52;399.55;;;372.48;;
51438;SDS011;38816;51.142;-0.974;2023-05-10T12:54:18;341.67;;;318.83;;
51438;SDS011;38816;51.142;-0.974;2023-05-10T12:56:43;267.10;;;249.95;;
51438;SDS011;38816;51.142;-0.974;2023-05-10T12:59:09;222.73;;;208.27;;
51438;SDS011;38816;51.142;-0.974;2023-05-10T13:01:34;209.20;;;195.63;;
51438;SDS011;38816;51.142;-0.974;2023-05-10T13:03:59;207.50;;;193.70;;
51438;SDS011;38816;51.142;-0.974;2023-05-10T13:06:25;196.63;;;183.68;;
51438;SDS011;38816;51.142;-0.974;2023-05-10T13:08:50;183.23;;;171.05;;
51438;SDS011;38816;51.142;-0.974;2023-05-10T13:11:16;218.73;;;204.23;;
51438;SDS011;38816;51.142;-0.974;2023-05-10T13:13:44;289.05;;;269.67;;
51438;SDS011;38816;51.142;-0.974;2023-05-10T13:16:10;317.52;;;296.50;;
51438;SDS011;38816;51.142;-0.974;2023-05-10T13:18:35;302.75;;;282.83;;
51438;SDS011;38816;51.142;-0.974;2023-05-10T13:21:00;288.95;;;270.23;;
51438;SDS011;38816;51.142;-0.974;2023-05-10T13:23:28;270.48;;;252.88;;
51438;SDS011;38816;51.142;-0.974;2023-05-10T13:25:54;283.90;;;265.00;;
51438;SDS011;38816;51.142;-0.974;2023-05-10T13:28:19;297.20;;;277.58;;
51438;SDS011;38816;51.142;-0.974;2023-05-10T13:30:45;286.25;;;267.40;;
51438;SDS011;38816;51.142;-0.974;2023-05-10T13:33:10;278.23;;;260.00;;
51438;SDS011;38816;51.142;-0.974;2023-05-10T13:35:36;299.58;;;279.92;;
51438;SDS011;38816;51.142;-0.974;2023-05-10T13:38:01;266.27;;;248.98;;
51438;SDS011;38816;51.142;-0.974;2023-05-10T13:40:27;178.43;;;166.50;;
51438;SDS011;38816;51.142;-0.974;2023-05-10T13:42:53;152.32;;;141.95;;
51438;SDS011;38816;51.142;-0.974;2023-05-10T13:45:18;178.38;;;166.77;;
51438;SDS011;38816;51.142;-0.974;2023-05-10T13:47:44;177.93;;;165.75;;
51438;SDS011;38816;51.142;-0.974;2023-05-10T13:50:09;201.27;;;188.02;;
51438;SDS011;38816;51.142;-0.974;2023-05-10T13:52:35;232.95;;;217.50;;
51438;SDS011;38816;51.142;-0.974;2023-05-10T13:55:00;213.93;;;200.15;;
51438;SDS011;38816;51.142;-0.974;2023-05-10T13:57:25;159.43;;;148.80;;
51438;SDS011;38816;51.142;-0.974;2023-05-10T13:59:51;152.20;;;142.13;;
51438;SDS011;38816;51.142;-0.974;2023-05-10T14:02:17;145.77;;;136.10;;
51438;SDS011;38816;51.142;-0.974;2023-05-10T14:04:42;72.38;;;67.47;;
51438;SDS011;38816;51.142;-0.974;2023-05-10T14:07:08;89.35;;;83.35;;
51438;SDS011;38816;51.142;-0.974;2023-05-10T14:09:33;112.15;;;104.32;;
51438;SDS011;38816;51.142;-0.974;2023-05-10T14:11:58;116.88;;;108.78;;
51438;SDS011;38816;51.142;-0.974;2023-05-10T14:14:24;106.28;;;98.90;;
51438;SDS011;38816;51.142;-0.974;2023-05-10T14:16:49;111.25;;;103.70;;
51438;SDS011;38816;51.142;-0.974;2023-05-10T14:19:15;136.55;;;127.40;;
51438;SDS011;38816;51.142;-0.974;2023-05-10T14:21:40;116.43;;;108.43;;
51438;SDS011;38816;51.142;-0.974;2023-05-10T14:24:06;122.22;;;113.95;;
51438;SDS011;38816;51.142;-0.974;2023-05-10T14:26:32;129.57;;;120.57;;
51438;SDS011;38816;51.142;-0.974;2023-05-10T14:28:58;110.40;;;102.38;;